Budapest, Hungary

2:42 AM CET on February 10, 2016 (GMT +0100)
Wekerlefalu | | Change Station
CLOSE
Current Station
Personal Weather Station
Location: Budapest, BUDAPEST
Elevation: 420 ft
Nearby Weather Stations

Elev 420 ft 47.45 °N, 19.12 °E | Updated 11 seconds ago

Overcast
Overcast
49.8 °F
Feels Like 43 °F
N
24.6
Wind Variable Wind from ESE
Gusts 24.6 mph

Today
High -- | Low -- °F
--% Chance of Precip.
Yesterday
High -- | Low -- °F
Precip. -- in
Pressure 29.47 in
Visibility 6.2 miles
Clouds Few 600 ft
Mostly Cloudy 1800 ft
Overcast 3100 ft
Windchill 43 °F
Dew Point 34 °F
Humidity 55%
Rainfall 0.00 in
Snow Depth Not available.
6:57 AM 4:58 PM
Waxing Crescent, 3% visible
METAR LHBP 100130Z 15009KT 9999 RA FEW006 BKN018 OVC031 09/09 Q0998 NOSIG
Pressure 29.47 in
Visibility 6.2 miles
Clouds Few 600 ft
Mostly Cloudy 1800 ft
Overcast 3100 ft
Windchill 43 °F
Dew Point 34 °F
Humidity 55%
Rainfall 0.00 in
Snow Depth Not available.
6:57 AM 4:58 PM
Waxing Crescent, 3% visible
METAR LHBP 100130Z 15009KT 9999 RA FEW006 BKN018 OVC031 09/09 Q0998 NOSIG

10-Day Weather Forecast

Almanac

Astronomy

Feb. 10, 2016 Rise Set
Actual Time
Civil Twilight
Nautical Twilight
Astronomical Twilight
Moon
Length of Visible Light
Length of Day
Tomorrow will be .
, % of the Moon is Illuminated

Today's Extremes

Country Highs Country Lows

Community

WunderPhotos

Upload Photos

1,891,760 photos uploaded!

WunderBlog® & News

Nearby

Air Quality

  Air Quality AQ Index Pollutant
Not available.

Snow Depth

Station Depth Elevation

Earthquake Activity

City Distance Mag. Time & Date
Minimum magnitude displayed is 2.5.

Coastal Water Temperatures

Place Temperature

Stations

Nearby Weather Stations

Station Location Temp. Windchill Dew Point Humidity Wind Precip. Elev Updated Type